createdAt,value
2022-08-17T00:02:26.941Z,100275.47
2022-08-17T00:05:33.781Z,100267.72
2022-08-17T00:08:39.920Z,100256.50
2022-08-17T00:12:40.576Z,100257.16
2022-08-17T00:15:13.348Z,100249.81
2022-08-17T00:19:00.352Z,100239.84
2022-08-17T00:22:28.615Z,100228.28
2022-08-17T00:25:13.184Z,100220.13
2022-08-17T00:28:17.292Z,100224.22
2022-08-17T00:31:22.757Z,100222.59
2022-08-17T00:34:27.930Z,100221.97
2022-08-17T00:37:31.006Z,100220.97
2022-08-17T00:40:40.684Z,100212.00
2022-08-17T00:43:50.803Z,100206.28
2022-08-17T00:46:55.581Z,100202.78
2022-08-17T00:49:58.552Z,100208.66
2022-08-17T00:53:01.571Z,100198.06
2022-08-17T00:56:09.434Z,100198.81
2022-08-17T00:59:18.784Z,100205.28
2022-08-17T01:02:24.347Z,100200.38
2022-08-17T01:05:31.329Z,100209.31
2022-08-17T01:08:36.892Z,100219.84
2022-08-17T01:11:40.581Z,100232.38
2022-08-17T01:14:44.002Z,100236.72
2022-08-17T01:17:48.854Z,100234.09
2022-08-17T01:20:54.973Z,100232.44
2022-08-17T01:23:59.398Z,100239.09
2022-08-17T01:27:03.521Z,100233.81
2022-08-17T01:30:54.170Z,100243.78
2022-08-17T01:33:39.118Z,100235.84
2022-08-17T01:36:45.833Z,100237.00
2022-08-17T01:39:54.869Z,100229.91
2022-08-17T01:43:01.594Z,100233.75
2022-08-17T01:46:04.981Z,100235.88
2022-08-17T01:49:11.522Z,100231.16
2022-08-17T01:52:14.796Z,100229.69
2022-08-17T01:55:27.430Z,100229.06
2022-08-17T01:58:30.917Z,100231.06
2022-08-17T02:01:36.992Z,100222.75
2022-08-17T02:04:39.995Z,100226.41
2022-08-17T02:07:55.989Z,100234.19
2022-08-17T02:11:11.382Z,100246.31
2022-08-17T02:14:15.382Z,100245.84
2022-08-17T02:17:18.870Z,100253.50
2022-08-17T02:20:41.180Z,100257.06
2022-08-17T02:23:48.616Z,100252.31
2022-08-17T02:26:52.960Z,100255.03
2022-08-17T02:29:56.392Z,100255.59
2022-08-17T02:32:59.354Z,100254.31
2022-08-17T02:36:09.881Z,100249.22
2022-08-17T02:39:14.037Z,100243.63
2022-08-17T02:42:18.470Z,100239.16
2022-08-17T02:45:24.504Z,100243.34
2022-08-17T02:48:29.698Z,100241.06
2022-08-17T02:51:35.277Z,100234.13
2022-08-17T02:54:40.104Z,100243.41
2022-08-17T02:57:46.643Z,100241.47
2022-08-17T03:00:50.083Z,100247.16
2022-08-17T03:03:53.082Z,100238.56
2022-08-17T03:06:56.211Z,100222.88
2022-08-17T03:10:00.059Z,100227.69
2022-08-17T03:13:04.842Z,100223.94
2022-08-17T03:16:09.107Z,100222.31
2022-08-17T03:19:12.531Z,100215.72
2022-08-17T03:22:37.337Z,100211.44
2022-08-17T03:25:42.763Z,100216.22
2022-08-17T03:28:48.415Z,100216.22
2022-08-17T03:31:52.317Z,100206.66
2022-08-17T03:35:00.468Z,100206.50
2022-08-17T03:38:05.689Z,100207.47
2022-08-17T03:41:08.933Z,100201.75
2022-08-17T03:44:13.206Z,100197.47
2022-08-17T03:47:33.687Z,100196.19
2022-08-17T03:50:54.151Z,100190.22
2022-08-17T03:54:17.331Z,100185.63
2022-08-17T03:57:20.589Z,100193.88
2022-08-17T04:00:25.306Z,100191.91
2022-08-17T04:03:28.631Z,100185.81
2022-08-17T04:06:31.647Z,100177.03
2022-08-17T04:09:34.917Z,100182.97
2022-08-17T04:12:48.460Z,100185.44
2022-08-17T04:15:53.599Z,100188.88
2022-08-17T04:18:56.617Z,100184.41
2022-08-17T04:21:59.607Z,100186.06
2022-08-17T04:25:07.599Z,100189.56
2022-08-17T04:28:16.029Z,100186.53
2022-08-17T04:31:20.777Z,100194.84
2022-08-17T04:34:25.071Z,100196.47
2022-08-17T04:37:28.051Z,100194.78
2022-08-17T04:40:48.825Z,100198.47
2022-08-17T04:43:56.002Z,100209.38
2022-08-17T04:47:01.327Z,100223.06
2022-08-17T04:50:04.708Z,100232.44
2022-08-17T04:53:07.768Z,100240.41
2022-08-17T04:56:15.991Z,100249.47
2022-08-17T04:59:22.765Z,100255.84
2022-08-17T05:02:27.092Z,100262.88
2022-08-17T05:05:36.263Z,100277.56
2022-08-17T05:08:39.739Z,100280.50
2022-08-17T05:11:45.053Z,100288.44
2022-08-17T05:14:48.131Z,100309.88
2022-08-17T05:17:52.451Z,100317.59
2022-08-17T05:20:55.792Z,100330.00
2022-08-17T05:23:58.987Z,100349.78
2022-08-17T05:27:06.652Z,100349.34
2022-08-17T05:30:10.895Z,100360.47
2022-08-17T05:33:17.963Z,100368.78
2022-08-17T05:36:43.191Z,100375.84
2022-08-17T05:39:44.278Z,100378.38
2022-08-17T05:42:47.386Z,100389.88
2022-08-17T05:46:00.072Z,100380.03
2022-08-17T05:49:09.060Z,100387.69
2022-08-17T05:52:33.228Z,100390.69
2022-08-17T05:55:46.915Z,100401.00
2022-08-17T05:59:02.143Z,100401.84
2022-08-17T06:02:15.637Z,100423.75
2022-08-17T06:05:38.031Z,100441.31
2022-08-17T06:08:48.989Z,100452.41
2022-08-17T06:12:01.059Z,100455.34
2022-08-17T06:15:24.814Z,100469.09
2022-08-17T06:18:36.479Z,100487.28
2022-08-17T06:21:45.081Z,100500.47
2022-08-17T06:24:56.691Z,100510.19
2022-08-17T06:28:05.853Z,100534.88
2022-08-17T06:31:17.424Z,100527.75
2022-08-17T06:34:20.850Z,100536.28
2022-08-17T06:37:59.316Z,100534.84
2022-08-17T06:41:15.452Z,100547.50
2022-08-17T06:44:43.356Z,100572.19
2022-08-17T06:47:53.572Z,100570.78
2022-08-17T06:51:02.359Z,100580.22
2022-08-17T06:54:13.809Z,100577.69
2022-08-17T06:57:25.117Z,100569.75
2022-08-17T07:00:34.460Z,100591.06
2022-08-17T07:03:45.208Z,100594.09
2022-08-17T07:06:53.725Z,100576.19
2022-08-17T07:10:01.041Z,100584.84
2022-08-17T07:13:21.470Z,100597.78
2022-08-17T07:16:31.465Z,100599.31
2022-08-17T07:19:38.125Z,100603.06
2022-08-17T07:22:59.853Z,100614.97
2022-08-17T07:26:07.328Z,100633.66
2022-08-17T07:29:14.980Z,100639.19
2022-08-17T07:32:22.783Z,100629.97
2022-08-17T07:35:40.820Z,100631.38
2022-08-17T07:38:57.501Z,100636.50
2022-08-17T07:42:05.979Z,100639.53
2022-08-17T07:45:26.886Z,100643.75
2022-08-17T07:48:29.923Z,100652.13
2022-08-17T07:51:38.044Z,100660.44
2022-08-17T07:54:43.734Z,100672.88
2022-08-17T07:57:57.833Z,100666.97
2022-08-17T08:01:07.957Z,100677.00
2022-08-17T08:04:59.074Z,100667.16
2022-08-17T08:07:55.403Z,100674.03
2022-08-17T08:11:07.663Z,100673.91
2022-08-17T08:14:28.667Z,100677.97
2022-08-17T08:17:36.688Z,100679.47
2022-08-17T08:20:52.037Z,100680.31
2022-08-17T08:24:04.250Z,100684.22
2022-08-17T08:27:19.497Z,100687.34
2022-08-17T08:30:24.119Z,100686.63
2022-08-17T08:33:44.937Z,100690.66
2022-08-17T08:37:16.530Z,100686.69
2022-08-17T08:40:44.197Z,100685.53
2022-08-17T08:44:00.780Z,100690.56
2022-08-17T08:47:18.159Z,100682.34
2022-08-17T08:50:38.208Z,100676.84
2022-08-17T08:53:51.950Z,100688.28
2022-08-17T08:57:24.329Z,100681.44
2022-08-17T09:00:35.725Z,100679.22
2022-08-17T09:04:19.903Z,100682.72
2022-08-17T09:07:39.759Z,100675.94
2022-08-17T09:10:56.864Z,100676.16
2022-08-17T09:14:21.495Z,100685.28
2022-08-17T09:17:36.507Z,100684.97
2022-08-17T09:20:50.191Z,100675.25
2022-08-17T09:24:04.819Z,100676.59
2022-08-17T09:27:13.347Z,100672.34
2022-08-17T09:30:16.780Z,100672.50
2022-08-17T09:33:26.261Z,100669.34
2022-08-17T09:36:34.530Z,100668.88
2022-08-17T09:39:44.337Z,100676.63
2022-08-17T09:42:51.588Z,100677.09
2022-08-17T09:46:00.187Z,100671.94
2022-08-17T09:49:09.660Z,100680.50
2022-08-17T09:52:21.754Z,100686.81
2022-08-17T09:55:33.750Z,100673.41
2022-08-17T09:59:04.413Z,100676.97
2022-08-17T10:02:36.202Z,100678.13
2022-08-17T10:05:48.006Z,100668.66
2022-08-17T10:09:06.507Z,100663.97
2022-08-17T10:12:29.853Z,100668.66
2022-08-17T10:15:48.205Z,100661.09
2022-08-17T10:19:14.580Z,100652.25
2022-08-17T10:22:44.622Z,100662.47
2022-08-17T10:26:13.027Z,100650.16
2022-08-17T10:29:22.955Z,100654.91
2022-08-17T10:32:33.722Z,100664.44
2022-08-17T10:35:46.438Z,100663.66
2022-08-17T10:39:00.410Z,100667.78
2022-08-17T10:42:30.406Z,100655.50
2022-08-17T10:45:48.302Z,100653.41
2022-08-17T10:49:34.059Z,100651.41
2022-08-17T10:52:49.917Z,100658.47
2022-08-17T10:56:23.143Z,100657.28
2022-08-17T10:59:53.963Z,100661.25
2022-08-17T11:02:58.115Z,100656.13
2022-08-17T11:06:14.309Z,100655.94
2022-08-17T11:09:35.444Z,100659.53
2022-08-17T11:12:48.960Z,100640.72
2022-08-17T11:16:08.792Z,100642.97
2022-08-17T11:19:38.246Z,100650.56
2022-08-17T11:23:14.726Z,100646.22
2022-08-17T11:26:26.839Z,100643.53
2022-08-17T11:29:37.354Z,100638.38
2022-08-17T11:32:47.773Z,100633.22
2022-08-17T11:35:56.661Z,100634.50
2022-08-17T11:39:06.862Z,100628.81
2022-08-17T11:42:32.523Z,100632.00
2022-08-17T11:45:56.001Z,100628.22
2022-08-17T11:49:28.619Z,100627.75
2022-08-17T11:52:42.014Z,100623.41
2022-08-17T11:56:09.535Z,100621.84
2022-08-17T12:00:10.602Z,100612.28
2022-08-17T12:03:26.388Z,100620.13
2022-08-17T12:06:45.388Z,100609.88
2022-08-17T12:09:51.814Z,100617.97
2022-08-17T12:12:55.625Z,100615.13
2022-08-17T12:15:59.982Z,100601.19
2022-08-17T12:19:05.207Z,100609.13
2022-08-17T12:22:18.850Z,100615.09
2022-08-17T12:25:32.791Z,100614.53
2022-08-17T12:28:39.592Z,100617.16
2022-08-17T12:31:47.137Z,100621.16
2022-08-17T12:34:51.903Z,100624.22
2022-08-17T12:37:58.091Z,100616.56
2022-08-17T12:41:24.284Z,100612.56
2022-08-17T12:44:30.519Z,100603.22
2022-08-17T12:47:38.360Z,100610.53
2022-08-17T12:50:44.592Z,100602.66
2022-08-17T12:53:55.871Z,100603.91
2022-08-17T12:57:03.006Z,100602.84
2022-08-17T13:00:16.227Z,100603.06
2022-08-17T13:03:23.525Z,100590.97
2022-08-17T13:06:33.059Z,100570.75
2022-08-17T13:09:40.756Z,100572.53
2022-08-17T13:12:44.001Z,100569.34
2022-08-17T13:15:55.160Z,100571.47
2022-08-17T13:19:10.955Z,100575.34
2022-08-17T13:22:13.895Z,100573.44
2022-08-17T13:25:18.496Z,100574.78
2022-08-17T13:28:30.717Z,100574.91
2022-08-17T13:31:52.782Z,100573.63
2022-08-17T13:35:14.281Z,100582.81
2022-08-17T13:38:45.807Z,100573.66
2022-08-17T13:41:52.451Z,100581.25
2022-08-17T13:44:55.394Z,100574.47
2022-08-17T13:48:08.370Z,100575.50
2022-08-17T13:51:24.157Z,100572.72
2022-08-17T13:54:31.035Z,100572.84
2022-08-17T13:57:38.422Z,100573.94
2022-08-17T14:00:41.588Z,100575.47
2022-08-17T14:03:44.553Z,100570.97
2022-08-17T14:06:55.187Z,100573.06
2022-08-17T14:10:02.037Z,100573.38
2022-08-17T14:13:08.064Z,100569.56
2022-08-17T14:16:10.991Z,100566.09
2022-08-17T14:19:15.323Z,100561.75
2022-08-17T14:22:23.574Z,100568.25
2022-08-17T14:25:29.907Z,100569.63
2022-08-17T14:28:36.345Z,100564.75
2022-08-17T14:31:39.746Z,100565.28
2022-08-17T14:34:42.831Z,100562.84
2022-08-17T14:37:47.994Z,100560.97
2022-08-17T14:40:51.204Z,100558.50
2022-08-17T14:43:55.475Z,100552.28
2022-08-17T14:46:58.416Z,100554.94
2022-08-17T14:50:02.127Z,100552.53
2022-08-17T14:53:06.313Z,100550.03
2022-08-17T14:56:09.269Z,100544.31
2022-08-17T14:59:13.636Z,100542.19
2022-08-17T15:02:16.942Z,100553.38
2022-08-17T15:05:22.018Z,100548.78
2022-08-17T15:08:25.081Z,100562.50
2022-08-17T15:11:28.051Z,100546.19
2022-08-17T15:14:33.359Z,100550.25
2022-08-17T15:17:44.757Z,100549.69
2022-08-17T15:20:50.453Z,100544.72
2022-08-17T15:23:53.412Z,100545.44
2022-08-17T15:26:56.388Z,100542.66
2022-08-17T15:30:00.671Z,100546.00
2022-08-17T15:33:04.341Z,100544.41
2022-08-17T15:36:09.279Z,100548.84
2022-08-17T15:39:12.241Z,100549.69
2022-08-17T15:42:16.116Z,100543.69
2022-08-17T15:45:26.480Z,100544.00
2022-08-17T15:48:41.934Z,100543.44
2022-08-17T15:51:45.241Z,100542.72
2022-08-17T15:54:53.070Z,100532.59
2022-08-17T15:57:56.240Z,100529.19
2022-08-17T16:01:14.370Z,100527.59
2022-08-17T16:04:29.791Z,100524.34
2022-08-17T16:07:34.335Z,100522.66
2022-08-17T16:10:37.468Z,100526.91
2022-08-17T16:13:41.547Z,100517.38
2022-08-17T16:16:45.858Z,100520.03
2022-08-17T16:19:48.987Z,100514.81
2022-08-17T16:22:52.088Z,100524.50
2022-08-17T16:25:55.254Z,100515.75
2022-08-17T16:29:00.917Z,100522.34
2022-08-17T16:32:12.804Z,100524.78
2022-08-17T16:35:18.116Z,100522.28
2022-08-17T16:38:22.198Z,100510.22
2022-08-17T16:41:42.635Z,100507.31
2022-08-17T16:44:45.566Z,100508.13
2022-08-17T16:47:50.313Z,100513.50
2022-08-17T16:51:03.238Z,100516.53
2022-08-17T16:54:08.625Z,100512.47
2022-08-17T16:57:12.376Z,100509.53
2022-08-17T17:00:19.167Z,100509.59
2022-08-17T17:03:27.172Z,100506.41
2022-08-17T17:06:40.798Z,100507.41
2022-08-17T17:09:48.533Z,100510.94
2022-08-17T17:13:02.594Z,100504.94
2022-08-17T17:16:20.788Z,100506.22
2022-08-17T17:19:35.140Z,100507.13
2022-08-17T17:22:48.019Z,100510.69
2022-08-17T17:26:03.115Z,100517.03
2022-08-17T17:29:35.801Z,100515.47
2022-08-17T17:32:55.763Z,100510.22
2022-08-17T17:36:03.053Z,100509.13
2022-08-17T17:39:11.476Z,100507.16
2022-08-17T17:42:20.473Z,100507.53
2022-08-17T17:45:26.639Z,100506.63
2022-08-17T17:48:30.855Z,100502.78
2022-08-17T17:52:06.315Z,100495.78
2022-08-17T17:55:24.944Z,100498.91
2022-08-17T17:58:40.223Z,100494.59
2022-08-17T18:02:32.229Z,100499.34
2022-08-17T18:06:38.317Z,100510.63
2022-08-17T18:10:43.447Z,100510.84
2022-08-17T18:14:43.082Z,100514.84
2022-08-17T18:19:00.870Z,100510.63
2022-08-17T18:22:16.181Z,100510.47
2022-08-17T18:25:44.706Z,100500.03
2022-08-17T18:28:52.897Z,100509.47
2022-08-17T18:32:31.188Z,100516.56
2022-08-17T18:35:35.172Z,100518.72
2022-08-17T18:38:41.928Z,100526.31
2022-08-17T18:41:48.872Z,100528.25
2022-08-17T18:44:55.100Z,100535.69
2022-08-17T18:47:58.637Z,100531.00
2022-08-17T18:51:08.631Z,100528.97
2022-08-17T18:54:22.666Z,100520.50
2022-08-17T18:57:32.736Z,100526.69
2022-08-17T19:00:40.428Z,100533.75
2022-08-17T19:03:46.452Z,100527.94
2022-08-17T19:07:27.432Z,100532.16
2022-08-17T19:10:47.037Z,100531.91
2022-08-17T19:13:58.274Z,100539.97
2022-08-17T19:17:06.534Z,100530.00
2022-08-17T19:20:17.763Z,100533.00
2022-08-17T19:23:26.694Z,100536.25
2022-08-17T19:26:54.478Z,100526.97
2022-08-17T19:30:07.841Z,100527.19
2022-08-17T19:33:11.505Z,100523.47
2022-08-17T19:36:35.362Z,100535.84
2022-08-17T19:39:51.657Z,100528.81
2022-08-17T19:43:07.509Z,100532.53
2022-08-17T19:46:26.106Z,100538.94
2022-08-17T19:49:41.595Z,100528.63
2022-08-17T19:52:52.927Z,100521.41
2022-08-17T19:56:04.249Z,100524.34
2022-08-17T19:59:17.348Z,100524.25
2022-08-17T20:02:49.045Z,100522.69
2022-08-17T20:06:13.794Z,100520.16
2022-08-17T20:09:26.164Z,100519.56
2022-08-17T20:12:39.450Z,100514.22
2022-08-17T20:15:43.800Z,100519.66
2022-08-17T20:18:59.747Z,100518.38
2022-08-17T20:22:11.014Z,100513.03
2022-08-17T20:25:30.403Z,100515.31
2022-08-17T20:28:36.235Z,100517.75
2022-08-17T20:31:47.075Z,100519.94
2022-08-17T20:35:21.251Z,100518.69
2022-08-17T20:38:42.867Z,100519.38
2022-08-17T20:42:09.911Z,100509.91
2022-08-17T20:46:21.162Z,100514.44
2022-08-17T20:49:30.396Z,100513.16
2022-08-17T20:52:53.074Z,100523.00
2022-08-17T20:55:57.082Z,100524.84
2022-08-17T20:59:00.953Z,100524.53
2022-08-17T21:02:18.109Z,100530.34
2022-08-17T21:05:59.705Z,100523.56
2022-08-17T21:09:30.030Z,100532.47
2022-08-17T21:12:44.614Z,100529.63
2022-08-17T21:15:52.978Z,100525.22
2022-08-17T21:19:17.022Z,100516.44
2022-08-17T21:22:35.286Z,100526.88
2022-08-17T21:26:02.383Z,100529.56
2022-08-17T21:29:29.702Z,100524.63
2022-08-17T21:32:40.419Z,100535.25
2022-08-17T21:35:52.914Z,100535.63
2022-08-17T21:39:08.794Z,100542.81
2022-08-17T21:42:13.973Z,100536.66
2022-08-17T21:45:26.182Z,100532.59
2022-08-17T21:48:32.323Z,100534.03
2022-08-17T21:51:38.942Z,100531.19
2022-08-17T21:54:49.954Z,100528.13
2022-08-17T21:58:14.958Z,100529.38
2022-08-17T22:01:24.750Z,100534.94
2022-08-17T22:04:31.555Z,100540.56
2022-08-17T22:07:39.416Z,100538.91
2022-08-17T22:10:45.813Z,100544.06
2022-08-17T22:13:50.091Z,100541.81
2022-08-17T22:17:17.209Z,100542.06
2022-08-17T22:20:21.947Z,100538.59
2022-08-17T22:23:47.816Z,100541.88
2022-08-17T22:27:06.855Z,100545.59
2022-08-17T22:30:27.417Z,100539.41
2022-08-17T22:33:39.634Z,100546.81
2022-08-17T22:36:43.506Z,100550.91
2022-08-17T22:39:46.544Z,100541.09
2022-08-17T22:42:49.713Z,100550.94
2022-08-17T22:45:59.439Z,100546.44
2022-08-17T22:49:02.478Z,100552.38
2022-08-17T22:52:21.987Z,100549.75
2022-08-17T22:55:58.937Z,100553.66
2022-08-17T22:59:20.050Z,100547.13
2022-08-17T23:02:27.693Z,100548.94
2022-08-17T23:05:31.336Z,100547.31
2022-08-17T23:08:36.766Z,100541.19
2022-08-17T23:11:49.219Z,100548.78
2022-08-17T23:15:00.595Z,100536.25
2022-08-17T23:18:05.563Z,100535.44
2022-08-17T23:21:08.612Z,100543.00
2022-08-17T23:24:22.811Z,100535.66
2022-08-17T23:27:26.417Z,100539.13
2022-08-17T23:30:30.270Z,100539.56
2022-08-17T23:33:35.488Z,100533.59
2022-08-17T23:36:38.967Z,100525.38
2022-08-17T23:39:42.375Z,100525.38
2022-08-17T23:42:46.467Z,100530.50
2022-08-17T23:45:50.326Z,100533.97
2022-08-17T23:48:54.915Z,100520.44
2022-08-17T23:51:59.391Z,100528.66
2022-08-17T23:55:02.363Z,100524.16
2022-08-17T23:58:06.067Z,100522.31
